KIV weather

Chişinău International Airport
Chişinău, Chişinău, Moldova

Public forecast

Using degrees Celsius for public forecast. Weather courtesy of forecast.io.

METAR (pilot weather report)

Retrieved 2019/03/20 13:30 UTC (0 seconds ago):

LUKK 201330Z 02009KT 340V040 9999 OVC028 10/03 Q1028 R26/D NOSIG

TAF (pilot weather forecast)

Retrieved 2019/03/20 12:21 UTC (1 hour ago):

TAF TAF LUKK 201120Z 2012/2112 01014KT 9999 SCT020 BECMG 2015/2017 36004KT BECMG 2107/2109 32012KT